sensor_id;sensor_type;location;lat;lon;timestamp;temperature;humidity
56478;DHT22;42382;53.210;5.772;2023-04-03T00:02:16;3.80;76.50
56478;DHT22;42382;53.210;5.772;2023-04-03T00:04:42;3.80;76.60
56478;DHT22;42382;53.210;5.772;2023-04-03T00:07:07;3.70;76.70
56478;DHT22;42382;53.210;5.772;2023-04-03T00:09:33;3.70;76.90
56478;DHT22;42382;53.210;5.772;2023-04-03T00:11:58;3.60;76.90
56478;DHT22;42382;53.210;5.772;2023-04-03T00:14:24;3.60;76.90
56478;DHT22;42382;53.210;5.772;2023-04-03T00:16:49;3.60;77.00
56478;DHT22;42382;53.210;5.772;2023-04-03T00:19:15;3.50;77.10
56478;DHT22;42382;53.210;5.772;2023-04-03T00:21:40;3.50;77.20
56478;DHT22;42382;53.210;5.772;2023-04-03T00:24:06;3.50;77.30
56478;DHT22;42382;53.210;5.772;2023-04-03T00:26:32;3.40;77.40
56478;DHT22;42382;53.210;5.772;2023-04-03T00:28:57;3.40;77.40
56478;DHT22;42382;53.210;5.772;2023-04-03T00:31:23;3.40;77.60
56478;DHT22;42382;53.210;5.772;2023-04-03T00:33:48;3.40;77.70
56478;DHT22;42382;53.210;5.772;2023-04-03T00:36:14;3.30;77.80
56478;DHT22;42382;53.210;5.772;2023-04-03T00:38:39;3.30;77.80
56478;DHT22;42382;53.210;5.772;2023-04-03T00:41:05;3.30;78.10
56478;DHT22;42382;53.210;5.772;2023-04-03T00:43:32;3.30;78.30
56478;DHT22;42382;53.210;5.772;2023-04-03T00:45:58;3.20;78.50
56478;DHT22;42382;53.210;5.772;2023-04-03T00:48:37;3.10;78.50
56478;DHT22;42382;53.210;5.772;2023-04-03T00:51:04;3.10;78.60
56478;DHT22;42382;53.210;5.772;2023-04-03T00:53:47;3.00;78.70
56478;DHT22;42382;53.210;5.772;2023-04-03T00:56:15;3.00;78.70
56478;DHT22;42382;53.210;5.772;2023-04-03T00:58:44;3.00;78.70
56478;DHT22;42382;53.210;5.772;2023-04-03T01:01:12;2.90;78.70
56478;DHT22;42382;53.210;5.772;2023-04-03T01:03:39;2.90;78.70
56478;DHT22;42382;53.210;5.772;2023-04-03T01:06:05;2.90;78.60
56478;DHT22;42382;53.210;5.772;2023-04-03T01:08:31;2.90;78.50
56478;DHT22;42382;53.210;5.772;2023-04-03T01:10:56;2.80;78.40
56478;DHT22;42382;53.210;5.772;2023-04-03T01:13:24;2.80;78.40
56478;DHT22;42382;53.210;5.772;2023-04-03T01:15:50;2.80;78.40
56478;DHT22;42382;53.210;5.772;2023-04-03T01:18:16;2.80;78.30
56478;DHT22;42382;53.210;5.772;2023-04-03T01:25:40;2.70;78.30
56478;DHT22;42382;53.210;5.772;2023-04-03T01:28:07;2.70;78.00
56478;DHT22;42382;53.210;5.772;2023-04-03T01:30:34;2.70;78.00
56478;DHT22;42382;53.210;5.772;2023-04-03T01:33:01;2.70;77.90
56478;DHT22;42382;53.210;5.772;2023-04-03T01:35:27;2.70;78.00
56478;DHT22;42382;53.210;5.772;2023-04-03T01:37:52;2.70;77.80
56478;DHT22;42382;53.210;5.772;2023-04-03T01:40:18;2.70;77.30
56478;DHT22;42382;53.210;5.772;2023-04-03T01:42:43;2.70;77.10
56478;DHT22;42382;53.210;5.772;2023-04-03T01:45:09;2.60;77.40
56478;DHT22;42382;53.210;5.772;2023-04-03T01:47:35;2.60;77.40
56478;DHT22;42382;53.210;5.772;2023-04-03T01:50:00;2.60;77.30
56478;DHT22;42382;53.210;5.772;2023-04-03T01:52:26;2.60;77.00
56478;DHT22;42382;53.210;5.772;2023-04-03T01:54:51;2.60;77.00
56478;DHT22;42382;53.210;5.772;2023-04-03T01:57:17;2.60;77.00
56478;DHT22;42382;53.210;5.772;2023-04-03T01:59:43;2.50;77.00
56478;DHT22;42382;53.210;5.772;2023-04-03T02:02:08;2.50;77.00
56478;DHT22;42382;53.210;5.772;2023-04-03T02:04:34;2.50;76.90
56478;DHT22;42382;53.210;5.772;2023-04-03T02:06:59;2.50;76.60
56478;DHT22;42382;53.210;5.772;2023-04-03T02:09:25;2.50;76.80
56478;DHT22;42382;53.210;5.772;2023-04-03T02:11:52;2.50;76.90
56478;DHT22;42382;53.210;5.772;2023-04-03T02:14:18;2.40;77.10
56478;DHT22;42382;53.210;5.772;2023-04-03T02:16:44;2.40;77.10
56478;DHT22;42382;53.210;5.772;2023-04-03T02:19:09;2.40;77.20
56478;DHT22;42382;53.210;5.772;2023-04-03T02:21:35;2.30;77.30
56478;DHT22;42382;53.210;5.772;2023-04-03T02:24:00;2.30;77.50
56478;DHT22;42382;53.210;5.772;2023-04-03T02:26:26;2.30;77.50
56478;DHT22;42382;53.210;5.772;2023-04-03T02:28:51;2.20;77.60
56478;DHT22;42382;53.210;5.772;2023-04-03T02:31:17;2.20;77.70
56478;DHT22;42382;53.210;5.772;2023-04-03T02:33:43;2.20;77.80
56478;DHT22;42382;53.210;5.772;2023-04-03T02:36:09;2.20;77.90
56478;DHT22;42382;53.210;5.772;2023-04-03T02:38:34;2.10;78.00
56478;DHT22;42382;53.210;5.772;2023-04-03T02:41:03;2.10;78.00
56478;DHT22;42382;53.210;5.772;2023-04-03T02:43:29;2.10;78.10
56478;DHT22;42382;53.210;5.772;2023-04-03T02:45:54;2.10;78.20
56478;DHT22;42382;53.210;5.772;2023-04-03T02:48:20;2.10;78.20
56478;DHT22;42382;53.210;5.772;2023-04-03T02:50:46;2.00;78.30
56478;DHT22;42382;53.210;5.772;2023-04-03T02:53:11;2.10;78.30
56478;DHT22;42382;53.210;5.772;2023-04-03T02:55:37;2.10;78.30
56478;DHT22;42382;53.210;5.772;2023-04-03T02:58:02;2.10;78.40
56478;DHT22;42382;53.210;5.772;2023-04-03T03:00:29;2.00;78.40
56478;DHT22;42382;53.210;5.772;2023-04-03T03:02:54;2.00;78.40
56478;DHT22;42382;53.210;5.772;2023-04-03T03:05:20;2.00;78.50
56478;DHT22;42382;53.210;5.772;2023-04-03T03:07:45;1.90;78.50
56478;DHT22;42382;53.210;5.772;2023-04-03T03:10:11;1.90;78.50
56478;DHT22;42382;53.210;5.772;2023-04-03T03:12:36;1.90;78.50
56478;DHT22;42382;53.210;5.772;2023-04-03T03:15:02;1.90;78.50
56478;DHT22;42382;53.210;5.772;2023-04-03T03:17:27;1.90;78.60
56478;DHT22;42382;53.210;5.772;2023-04-03T03:19:53;1.90;78.80
56478;DHT22;42382;53.210;5.772;2023-04-03T03:22:18;1.90;78.70
56478;DHT22;42382;53.210;5.772;2023-04-03T03:24:44;1.90;78.80
56478;DHT22;42382;53.210;5.772;2023-04-03T03:27:09;1.80;78.80
56478;DHT22;42382;53.210;5.772;2023-04-03T03:29:35;1.80;78.90
56478;DHT22;42382;53.210;5.772;2023-04-03T03:32:01;1.80;78.90
56478;DHT22;42382;53.210;5.772;2023-04-03T03:34:26;1.80;78.90
56478;DHT22;42382;53.210;5.772;2023-04-03T03:36:52;1.80;78.90
56478;DHT22;42382;53.210;5.772;2023-04-03T03:39:17;1.80;78.90
56478;DHT22;42382;53.210;5.772;2023-04-03T03:41:42;1.80;78.90
56478;DHT22;42382;53.210;5.772;2023-04-03T03:44:08;1.70;78.90
56478;DHT22;42382;53.210;5.772;2023-04-03T03:46:34;1.70;78.90
56478;DHT22;42382;53.210;5.772;2023-04-03T03:48:59;1.70;79.00
56478;DHT22;42382;53.210;5.772;2023-04-03T03:51:25;1.70;79.00
56478;DHT22;42382;53.210;5.772;2023-04-03T03:53:50;1.70;79.00
56478;DHT22;42382;53.210;5.772;2023-04-03T03:56:16;1.70;79.10
56478;DHT22;42382;53.210;5.772;2023-04-03T03:58:41;1.70;79.10
56478;DHT22;42382;53.210;5.772;2023-04-03T04:01:07;1.70;79.10
56478;DHT22;42382;53.210;5.772;2023-04-03T04:03:32;1.60;79.10
56478;DHT22;42382;53.210;5.772;2023-04-03T04:05:58;1.70;79.10
56478;DHT22;42382;53.210;5.772;2023-04-03T04:08:23;1.70;79.20
56478;DHT22;42382;53.210;5.772;2023-04-03T04:10:49;1.60;79.30
56478;DHT22;42382;53.210;5.772;2023-04-03T04:13:15;1.60;79.40
56478;DHT22;42382;53.210;5.772;2023-04-03T04:15:40;1.60;79.40
56478;DHT22;42382;53.210;5.772;2023-04-03T04:18:06;1.60;79.40
56478;DHT22;42382;53.210;5.772;2023-04-03T04:20:31;1.60;79.40
56478;DHT22;42382;53.210;5.772;2023-04-03T04:22:57;1.60;79.40
56478;DHT22;42382;53.210;5.772;2023-04-03T04:25:22;1.60;79.40
56478;DHT22;42382;53.210;5.772;2023-04-03T04:27:48;1.50;79.50
56478;DHT22;42382;53.210;5.772;2023-04-03T04:30:13;1.50;79.50
56478;DHT22;42382;53.210;5.772;2023-04-03T04:32:39;1.60;79.40
56478;DHT22;42382;53.210;5.772;2023-04-03T04:35:04;1.50;79.40
56478;DHT22;42382;53.210;5.772;2023-04-03T04:37:30;1.50;79.50
56478;DHT22;42382;53.210;5.772;2023-04-03T04:39:56;1.50;79.50
56478;DHT22;42382;53.210;5.772;2023-04-03T04:42:21;1.40;79.40
56478;DHT22;42382;53.210;5.772;2023-04-03T04:44:47;1.40;79.40
56478;DHT22;42382;53.210;5.772;2023-04-03T04:47:12;1.40;79.40
56478;DHT22;42382;53.210;5.772;2023-04-03T04:49:38;1.40;79.50
56478;DHT22;42382;53.210;5.772;2023-04-03T04:52:04;1.40;79.50
56478;DHT22;42382;53.210;5.772;2023-04-03T04:54:29;1.30;79.50
56478;DHT22;42382;53.210;5.772;2023-04-03T04:56:55;1.30;79.50
56478;DHT22;42382;53.210;5.772;2023-04-03T04:59:20;1.30;79.50
56478;DHT22;42382;53.210;5.772;2023-04-03T05:01:46;1.20;79.70
56478;DHT22;42382;53.210;5.772;2023-04-03T05:04:11;1.20;79.80
56478;DHT22;42382;53.210;5.772;2023-04-03T05:06:38;1.10;79.80
56478;DHT22;42382;53.210;5.772;2023-04-03T05:09:03;1.10;79.90
56478;DHT22;42382;53.210;5.772;2023-04-03T05:11:29;1.10;80.00
56478;DHT22;42382;53.210;5.772;2023-04-03T05:13:55;1.10;80.10
56478;DHT22;42382;53.210;5.772;2023-04-03T05:16:20;1.10;80.10
56478;DHT22;42382;53.210;5.772;2023-04-03T05:18:47;1.10;80.10
56478;DHT22;42382;53.210;5.772;2023-04-03T05:21:12;1.10;80.20
56478;DHT22;42382;53.210;5.772;2023-04-03T05:23:38;1.10;80.30
56478;DHT22;42382;53.210;5.772;2023-04-03T05:26:03;1.10;80.30
56478;DHT22;42382;53.210;5.772;2023-04-03T05:28:29;1.00;80.50
56478;DHT22;42382;53.210;5.772;2023-04-03T05:30:58;1.00;80.60
56478;DHT22;42382;53.210;5.772;2023-04-03T05:33:24;1.00;80.80
56478;DHT22;42382;53.210;5.772;2023-04-03T05:35:51;1.00;80.80
56478;DHT22;42382;53.210;5.772;2023-04-03T05:38:17;1.00;80.90
56478;DHT22;42382;53.210;5.772;2023-04-03T05:40:42;1.00;81.10
56478;DHT22;42382;53.210;5.772;2023-04-03T05:43:08;1.00;81.20
56478;DHT22;42382;53.210;5.772;2023-04-03T05:45:34;1.00;81.20
56478;DHT22;42382;53.210;5.772;2023-04-03T05:48:00;1.00;81.30
56478;DHT22;42382;53.210;5.772;2023-04-03T05:50:25;1.00;81.40
56478;DHT22;42382;53.210;5.772;2023-04-03T05:52:51;1.00;81.50
56478;DHT22;42382;53.210;5.772;2023-04-03T05:55:18;1.10;81.40
56478;DHT22;42382;53.210;5.772;2023-04-03T05:57:43;1.10;81.50
56478;DHT22;42382;53.210;5.772;2023-04-03T06:00:11;1.10;81.60
56478;DHT22;42382;53.210;5.772;2023-04-03T06:02:38;1.10;81.50
56478;DHT22;42382;53.210;5.772;2023-04-03T06:05:03;1.10;81.50
56478;DHT22;42382;53.210;5.772;2023-04-03T06:07:29;1.10;81.50
56478;DHT22;42382;53.210;5.772;2023-04-03T06:09:55;1.10;81.60
56478;DHT22;42382;53.210;5.772;2023-04-03T06:12:21;1.20;81.50
56478;DHT22;42382;53.210;5.772;2023-04-03T06:14:47;1.10;81.50
56478;DHT22;42382;53.210;5.772;2023-04-03T06:17:13;1.20;81.60
56478;DHT22;42382;53.210;5.772;2023-04-03T06:19:39;1.20;81.60
56478;DHT22;42382;53.210;5.772;2023-04-03T06:22:04;1.20;81.40
56478;DHT22;42382;53.210;5.772;2023-04-03T06:24:30;1.30;81.60
56478;DHT22;42382;53.210;5.772;2023-04-03T06:26:56;1.30;81.50
56478;DHT22;42382;53.210;5.772;2023-04-03T06:29:22;1.30;81.50
56478;DHT22;42382;53.210;5.772;2023-04-03T06:31:47;1.30;81.50
56478;DHT22;42382;53.210;5.772;2023-04-03T06:34:13;1.40;81.40
56478;DHT22;42382;53.210;5.772;2023-04-03T06:36:39;1.40;81.40
56478;DHT22;42382;53.210;5.772;2023-04-03T06:39:05;1.40;81.30
56478;DHT22;42382;53.210;5.772;2023-04-03T06:41:30;1.50;81.40
56478;DHT22;42382;53.210;5.772;2023-04-03T06:43:56;1.50;81.30
56478;DHT22;42382;53.210;5.772;2023-04-03T06:46:23;1.50;81.40
56478;DHT22;42382;53.210;5.772;2023-04-03T06:48:49;1.50;81.20
56478;DHT22;42382;53.210;5.772;2023-04-03T06:53:44;1.60;81.10
56478;DHT22;42382;53.210;5.772;2023-04-03T06:56:10;1.70;81.20
56478;DHT22;42382;53.210;5.772;2023-04-03T06:58:35;1.70;81.10
56478;DHT22;42382;53.210;5.772;2023-04-03T07:01:01;1.70;81.00
56478;DHT22;42382;53.210;5.772;2023-04-03T07:03:26;1.80;80.70
56478;DHT22;42382;53.210;5.772;2023-04-03T07:05:52;1.80;80.50
56478;DHT22;42382;53.210;5.772;2023-04-03T07:08:18;1.90;80.80
56478;DHT22;42382;53.210;5.772;2023-04-03T07:10:43;1.90;80.50
56478;DHT22;42382;53.210;5.772;2023-04-03T07:13:09;1.90;80.50
56478;DHT22;42382;53.210;5.772;2023-04-03T07:15:34;2.00;80.50
56478;DHT22;42382;53.210;5.772;2023-04-03T07:18:01;2.00;80.70
56478;DHT22;42382;53.210;5.772;2023-04-03T07:20:27;2.10;80.70
56478;DHT22;42382;53.210;5.772;2023-04-03T07:22:52;2.10;80.70
56478;DHT22;42382;53.210;5.772;2023-04-03T07:25:18;2.10;80.00
56478;DHT22;42382;53.210;5.772;2023-04-03T07:27:43;2.20;80.00
56478;DHT22;42382;53.210;5.772;2023-04-03T07:30:09;2.20;80.20
56478;DHT22;42382;53.210;5.772;2023-04-03T07:32:35;2.30;80.10
56478;DHT22;42382;53.210;5.772;2023-04-03T07:35:01;2.30;79.70
56478;DHT22;42382;53.210;5.772;2023-04-03T07:37:27;2.40;79.90
56478;DHT22;42382;53.210;5.772;2023-04-03T07:39:53;2.40;79.30
56478;DHT22;42382;53.210;5.772;2023-04-03T07:42:20;2.40;79.10
56478;DHT22;42382;53.210;5.772;2023-04-03T07:44:45;2.50;79.20
56478;DHT22;42382;53.210;5.772;2023-04-03T07:47:11;2.60;79.40
56478;DHT22;42382;53.210;5.772;2023-04-03T07:49:38;2.70;79.30
56478;DHT22;42382;53.210;5.772;2023-04-03T07:52:06;2.70;78.80
56478;DHT22;42382;53.210;5.772;2023-04-03T07:54:32;2.70;78.20
56478;DHT22;42382;53.210;5.772;2023-04-03T07:57:01;2.80;78.80
56478;DHT22;42382;53.210;5.772;2023-04-03T07:59:27;2.80;78.40
56478;DHT22;42382;53.210;5.772;2023-04-03T08:01:53;2.90;77.80
56478;DHT22;42382;53.210;5.772;2023-04-03T08:04:18;2.90;78.00
56478;DHT22;42382;53.210;5.772;2023-04-03T08:06:44;3.00;78.00
56478;DHT22;42382;53.210;5.772;2023-04-03T08:09:09;3.00;77.40
56478;DHT22;42382;53.210;5.772;2023-04-03T08:11:35;3.10;77.40
56478;DHT22;42382;53.210;5.772;2023-04-03T08:16:28;3.20;77.20
56478;DHT22;42382;53.210;5.772;2023-04-03T08:18:54;3.40;77.50
56478;DHT22;42382;53.210;5.772;2023-04-03T08:23:49;5.90;74.70
56478;DHT22;42382;53.210;5.772;2023-04-03T08:26:17;7.00;72.20
56478;DHT22;42382;53.210;5.772;2023-04-03T08:28:44;8.20;70.20
56478;DHT22;42382;53.210;5.772;2023-04-03T08:31:13;9.30;66.00
56478;DHT22;42382;53.210;5.772;2023-04-03T08:33:39;10.10;61.30
56478;DHT22;42382;53.210;5.772;2023-04-03T08:38:33;10.50;58.00
56478;DHT22;42382;53.210;5.772;2023-04-03T08:59:00;11.10;51.40
56478;DHT22;42382;53.210;5.772;2023-04-03T09:37:09;13.90;43.20
56478;DHT22;42382;53.210;5.772;2023-04-03T09:39:53;14.30;37.60
56478;DHT22;42382;53.210;5.772;2023-04-03T09:42:24;14.10;36.70
56478;DHT22;42382;53.210;5.772;2023-04-03T09:45:00;14.20;37.50
56478;DHT22;42382;53.210;5.772;2023-04-03T09:47:34;14.40;37.30
56478;DHT22;42382;53.210;5.772;2023-04-03T09:52:41;14.90;35.10
56478;DHT22;42382;53.210;5.772;2023-04-03T09:55:22;14.80;35.70
56478;DHT22;42382;53.210;5.772;2023-04-03T09:57:54;14.90;34.60
56478;DHT22;42382;53.210;5.772;2023-04-03T10:00:23;15.10;35.40
56478;DHT22;42382;53.210;5.772;2023-04-03T10:02:54;15.30;33.60
56478;DHT22;42382;53.210;5.772;2023-04-03T10:10:48;15.60;33.30
56478;DHT22;42382;53.210;5.772;2023-04-03T10:13:19;15.70;33.20
56478;DHT22;42382;53.210;5.772;2023-04-03T10:15:54;15.80;31.70
56478;DHT22;42382;53.210;5.772;2023-04-03T10:21:33;16.10;32.80
56478;DHT22;42382;53.210;5.772;2023-04-03T10:30:13;16.80;32.40
56478;DHT22;42382;53.210;5.772;2023-04-03T10:32:55;17.00;32.10
56478;DHT22;42382;53.210;5.772;2023-04-03T10:40:52;16.10;29.70
56478;DHT22;42382;53.210;5.772;2023-04-03T10:46:27;16.00;30.00
56478;DHT22;42382;53.210;5.772;2023-04-03T10:54:46;15.80;29.70
56478;DHT22;42382;53.210;5.772;2023-04-03T10:57:14;15.70;28.20
56478;DHT22;42382;53.210;5.772;2023-04-03T11:02:25;15.80;29.20
56478;DHT22;42382;53.210;5.772;2023-04-03T11:04:58;15.90;28.90
56478;DHT22;42382;53.210;5.772;2023-04-03T11:07:28;16.10;29.50
56478;DHT22;42382;53.210;5.772;2023-04-03T11:10:17;16.30;29.00
56478;DHT22;42382;53.210;5.772;2023-04-03T11:12:48;16.30;28.60
56478;DHT22;42382;53.210;5.772;2023-04-03T11:15:29;16.10;28.30
56478;DHT22;42382;53.210;5.772;2023-04-03T11:18:14;15.90;29.10
56478;DHT22;42382;53.210;5.772;2023-04-03T11:20:47;15.90;28.90
56478;DHT22;42382;53.210;5.772;2023-04-03T11:23:22;15.90;29.80
56478;DHT22;42382;53.210;5.772;2023-04-03T11:25:51;16.10;29.00
56478;DHT22;42382;53.210;5.772;2023-04-03T11:28:19;16.20;28.40
56478;DHT22;42382;53.210;5.772;2023-04-03T11:33:45;16.10;29.10
56478;DHT22;42382;53.210;5.772;2023-04-03T11:51:54;16.00;27.90
56478;DHT22;42382;53.210;5.772;2023-04-03T12:02:14;15.20;29.50
56478;DHT22;42382;53.210;5.772;2023-04-03T12:07:18;13.30;31.20
56478;DHT22;42382;53.210;5.772;2023-04-03T12:17:01;12.60;32.40
56478;DHT22;42382;53.210;5.772;2023-04-03T12:24:29;11.90;33.90
56478;DHT22;42382;53.210;5.772;2023-04-03T12:27:16;11.80;35.00
56478;DHT22;42382;53.210;5.772;2023-04-03T12:32:51;11.40;35.60
56478;DHT22;42382;53.210;5.772;2023-04-03T12:35:30;11.50;34.70
56478;DHT22;42382;53.210;5.772;2023-04-03T12:38:37;11.40;35.50
56478;DHT22;42382;53.210;5.772;2023-04-03T12:44:24;11.60;36.20
56478;DHT22;42382;53.210;5.772;2023-04-03T12:46:53;11.70;36.40
56478;DHT22;42382;53.210;5.772;2023-04-03T12:49:38;11.60;35.80
56478;DHT22;42382;53.210;5.772;2023-04-03T12:52:16;11.60;34.10
56478;DHT22;42382;53.210;5.772;2023-04-03T12:54:45;11.60;35.50
56478;DHT22;42382;53.210;5.772;2023-04-03T12:57:32;11.70;36.10
56478;DHT22;42382;53.210;5.772;2023-04-03T12:59:58;11.70;36.10
56478;DHT22;42382;53.210;5.772;2023-04-03T13:02:31;11.60;35.50
56478;DHT22;42382;53.210;5.772;2023-04-03T13:05:05;11.60;36.50
56478;DHT22;42382;53.210;5.772;2023-04-03T13:07:33;11.50;36.20
56478;DHT22;42382;53.210;5.772;2023-04-03T13:12:56;11.60;36.40
56478;DHT22;42382;53.210;5.772;2023-04-03T13:17:51;11.60;36.70
56478;DHT22;42382;53.210;5.772;2023-04-03T13:20:28;11.70;37.00
56478;DHT22;42382;53.210;5.772;2023-04-03T13:23:01;11.70;36.80
56478;DHT22;42382;53.210;5.772;2023-04-03T13:25:30;11.80;37.00
56478;DHT22;42382;53.210;5.772;2023-04-03T13:27:58;11.80;37.30
56478;DHT22;42382;53.210;5.772;2023-04-03T13:30:27;11.80;36.70
56478;DHT22;42382;53.210;5.772;2023-04-03T13:32:55;11.80;36.20
56478;DHT22;42382;53.210;5.772;2023-04-03T13:35:41;11.70;36.60
56478;DHT22;42382;53.210;5.772;2023-04-03T13:38:23;11.70;36.30
56478;DHT22;42382;53.210;5.772;2023-04-03T13:40:53;11.80;37.20
56478;DHT22;42382;53.210;5.772;2023-04-03T13:43:35;11.70;37.80
56478;DHT22;42382;53.210;5.772;2023-04-03T13:48:44;11.80;36.50
56478;DHT22;42382;53.210;5.772;2023-04-03T13:56:24;11.70;36.90
56478;DHT22;42382;53.210;5.772;2023-04-03T13:58:54;11.60;37.00
56478;DHT22;42382;53.210;5.772;2023-04-03T14:01:21;11.70;37.80
56478;DHT22;42382;53.210;5.772;2023-04-03T14:03:55;11.80;37.70
56478;DHT22;42382;53.210;5.772;2023-04-03T14:06:21;11.80;37.10
56478;DHT22;42382;53.210;5.772;2023-04-03T14:08:47;11.70;36.90
56478;DHT22;42382;53.210;5.772;2023-04-03T14:11:15;11.70;36.90
56478;DHT22;42382;53.210;5.772;2023-04-03T14:13:41;11.60;37.00
56478;DHT22;42382;53.210;5.772;2023-04-03T14:16:07;11.70;37.60
56478;DHT22;42382;53.210;5.772;2023-04-03T14:18:33;11.60;36.80
56478;DHT22;42382;53.210;5.772;2023-04-03T14:20:58;11.50;36.90
56478;DHT22;42382;53.210;5.772;2023-04-03T14:23:27;11.40;37.90
56478;DHT22;42382;53.210;5.772;2023-04-03T14:25:52;11.50;37.60
56478;DHT22;42382;53.210;5.772;2023-04-03T14:28:19;11.50;37.70
56478;DHT22;42382;53.210;5.772;2023-04-03T14:30:46;11.50;38.10
56478;DHT22;42382;53.210;5.772;2023-04-03T14:33:14;11.60;38.90
56478;DHT22;42382;53.210;5.772;2023-04-03T14:35:40;11.50;37.60
56478;DHT22;42382;53.210;5.772;2023-04-03T14:38:12;11.60;38.00
56478;DHT22;42382;53.210;5.772;2023-04-03T14:40:40;11.70;37.80
56478;DHT22;42382;53.210;5.772;2023-04-03T14:43:08;11.70;37.20
56478;DHT22;42382;53.210;5.772;2023-04-03T14:45:34;11.70;38.10
56478;DHT22;42382;53.210;5.772;2023-04-03T14:48:00;11.70;38.10
56478;DHT22;42382;53.210;5.772;2023-04-03T14:50:26;11.80;38.40
56478;DHT22;42382;53.210;5.772;2023-04-03T14:52:53;11.90;37.90
56478;DHT22;42382;53.210;5.772;2023-04-03T14:55:20;11.80;37.30
56478;DHT22;42382;53.210;5.772;2023-04-03T14:57:46;11.80;37.40
56478;DHT22;42382;53.210;5.772;2023-04-03T15:00:13;11.80;37.40
56478;DHT22;42382;53.210;5.772;2023-04-03T15:02:39;11.80;37.60
56478;DHT22;42382;53.210;5.772;2023-04-03T15:05:06;11.80;38.00
56478;DHT22;42382;53.210;5.772;2023-04-03T15:07:34;11.90;37.60
56478;DHT22;42382;53.210;5.772;2023-04-03T15:10:33;11.90;38.60
56478;DHT22;42382;53.210;5.772;2023-04-03T15:12:51;12.00;38.30
56478;DHT22;42382;53.210;5.772;2023-04-03T15:15:18;11.90;38.40
56478;DHT22;42382;53.210;5.772;2023-04-03T15:17:45;12.00;40.00
56478;DHT22;42382;53.210;5.772;2023-04-03T15:20:14;11.80;41.00
56478;DHT22;42382;53.210;5.772;2023-04-03T15:22:40;11.60;41.90
56478;DHT22;42382;53.210;5.772;2023-04-03T15:25:06;11.50;42.80
56478;DHT22;42382;53.210;5.772;2023-04-03T15:27:32;11.30;43.20
56478;DHT22;42382;53.210;5.772;2023-04-03T15:29:57;11.30;44.20
56478;DHT22;42382;53.210;5.772;2023-04-03T15:32:23;11.30;44.70
56478;DHT22;42382;53.210;5.772;2023-04-03T15:34:49;11.30;44.60
56478;DHT22;42382;53.210;5.772;2023-04-03T15:37:15;11.30;44.90
56478;DHT22;42382;53.210;5.772;2023-04-03T15:39:40;11.20;44.10
56478;DHT22;42382;53.210;5.772;2023-04-03T15:42:06;11.00;43.90
56478;DHT22;42382;53.210;5.772;2023-04-03T15:44:33;10.90;45.20
56478;DHT22;42382;53.210;5.772;2023-04-03T15:46:59;10.90;45.40
56478;DHT22;42382;53.210;5.772;2023-04-03T15:49:25;11.00;45.70
56478;DHT22;42382;53.210;5.772;2023-04-03T15:51:52;10.90;45.00
56478;DHT22;42382;53.210;5.772;2023-04-03T15:54:17;10.90;45.10
56478;DHT22;42382;53.210;5.772;2023-04-03T15:56:43;11.20;44.80
56478;DHT22;42382;53.210;5.772;2023-04-03T15:59:09;11.70;44.30
56478;DHT22;42382;53.210;5.772;2023-04-03T16:01:34;12.10;43.10
56478;DHT22;42382;53.210;5.772;2023-04-03T16:04:02;12.40;41.80
56478;DHT22;42382;53.210;5.772;2023-04-03T16:06:28;12.60;40.70
56478;DHT22;42382;53.210;5.772;2023-04-03T16:08:56;12.80;39.80
56478;DHT22;42382;53.210;5.772;2023-04-03T16:11:24;12.80;39.70
56478;DHT22;42382;53.210;5.772;2023-04-03T16:13:49;12.90;40.10
56478;DHT22;42382;53.210;5.772;2023-04-03T16:16:15;13.00;39.20
56478;DHT22;42382;53.210;5.772;2023-04-03T16:18:41;13.00;38.60
56478;DHT22;42382;53.210;5.772;2023-04-03T16:21:08;12.90;38.30
56478;DHT22;42382;53.210;5.772;2023-04-03T16:23:34;12.70;38.40
56478;DHT22;42382;53.210;5.772;2023-04-03T16:26:00;12.70;38.30
56478;DHT22;42382;53.210;5.772;2023-04-03T16:28:26;12.60;38.90
56478;DHT22;42382;53.210;5.772;2023-04-03T16:30:51;12.80;38.90
56478;DHT22;42382;53.210;5.772;2023-04-03T16:33:17;12.70;38.90
56478;DHT22;42382;53.210;5.772;2023-04-03T16:35:46;12.30;38.80
56478;DHT22;42382;53.210;5.772;2023-04-03T16:38:13;11.80;39.90
56478;DHT22;42382;53.210;5.772;2023-04-03T16:40:40;11.60;41.10
56478;DHT22;42382;53.210;5.772;2023-04-03T16:43:05;11.40;41.90
56478;DHT22;42382;53.210;5.772;2023-04-03T16:45:31;11.20;41.80
56478;DHT22;42382;53.210;5.772;2023-04-03T16:47:57;11.10;42.60
56478;DHT22;42382;53.210;5.772;2023-04-03T16:50:22;11.00;42.90
56478;DHT22;42382;53.210;5.772;2023-04-03T16:52:48;10.90;42.90
56478;DHT22;42382;53.210;5.772;2023-04-03T16:55:13;10.70;43.90
56478;DHT22;42382;53.210;5.772;2023-04-03T16:57:39;10.50;44.10
56478;DHT22;42382;53.210;5.772;2023-04-03T17:00:05;10.40;44.80
56478;DHT22;42382;53.210;5.772;2023-04-03T17:02:31;10.10;44.70
56478;DHT22;42382;53.210;5.772;2023-04-03T17:04:56;9.80;45.70
56478;DHT22;42382;53.210;5.772;2023-04-03T17:07:24;9.60;46.60
56478;DHT22;42382;53.210;5.772;2023-04-03T17:09:50;9.40;47.20
56478;DHT22;42382;53.210;5.772;2023-04-03T17:12:17;9.50;47.00
56478;DHT22;42382;53.210;5.772;2023-04-03T17:14:42;9.40;46.90
56478;DHT22;42382;53.210;5.772;2023-04-03T17:17:08;9.10;47.60
56478;DHT22;42382;53.210;5.772;2023-04-03T17:19:35;9.00;48.20
56478;DHT22;42382;53.210;5.772;2023-04-03T17:22:02;9.00;48.20
56478;DHT22;42382;53.210;5.772;2023-04-03T17:24:28;8.90;48.30
56478;DHT22;42382;53.210;5.772;2023-04-03T17:26:54;8.80;48.50
56478;DHT22;42382;53.210;5.772;2023-04-03T17:29:20;8.80;49.10
56478;DHT22;42382;53.210;5.772;2023-04-03T17:31:45;8.70;49.30
56478;DHT22;42382;53.210;5.772;2023-04-03T17:34:11;8.60;50.00
56478;DHT22;42382;53.210;5.772;2023-04-03T17:36:38;8.50;50.10
56478;DHT22;42382;53.210;5.772;2023-04-03T17:39:04;8.40;50.50
56478;DHT22;42382;53.210;5.772;2023-04-03T17:41:30;8.40;51.10
56478;DHT22;42382;53.210;5.772;2023-04-03T17:43:56;8.20;51.50
56478;DHT22;42382;53.210;5.772;2023-04-03T17:46:22;8.20;51.80
56478;DHT22;42382;53.210;5.772;2023-04-03T17:48:49;8.20;52.20
56478;DHT22;42382;53.210;5.772;2023-04-03T17:51:20;8.10;52.70
56478;DHT22;42382;53.210;5.772;2023-04-03T17:53:47;8.10;52.90
56478;DHT22;42382;53.210;5.772;2023-04-03T17:56:15;7.90;53.30
56478;DHT22;42382;53.210;5.772;2023-04-03T17:58:42;7.90;53.40
56478;DHT22;42382;53.210;5.772;2023-04-03T18:01:17;7.70;53.90
56478;DHT22;42382;53.210;5.772;2023-04-03T18:03:43;7.70;54.20
56478;DHT22;42382;53.210;5.772;2023-04-03T18:06:11;7.60;54.90
56478;DHT22;42382;53.210;5.772;2023-04-03T18:08:41;7.50;55.20
56478;DHT22;42382;53.210;5.772;2023-04-03T18:11:08;7.40;55.50
56478;DHT22;42382;53.210;5.772;2023-04-03T18:13:34;7.30;55.90
56478;DHT22;42382;53.210;5.772;2023-04-03T18:16:07;7.20;56.20
56478;DHT22;42382;53.210;5.772;2023-04-03T18:18:34;7.10;56.90
56478;DHT22;42382;53.210;5.772;2023-04-03T18:21:00;7.10;57.00
56478;DHT22;42382;53.210;5.772;2023-04-03T18:23:27;6.90;57.30
56478;DHT22;42382;53.210;5.772;2023-04-03T18:25:55;6.90;57.60